sensor_id;sensor_type;location;lat;lon;timestamp;pressure;altitude;pressure_sealevel;temperature
19196;BMP280;9730;48.926;11.376;2023-07-24T00:02:08;96723.03;;;17.09
19196;BMP280;9730;48.926;11.376;2023-07-24T00:04:36;96721.94;;;17.22
19196;BMP280;9730;48.926;11.376;2023-07-24T00:07:04;96717.06;;;17.19
19196;BMP280;9730;48.926;11.376;2023-07-24T00:09:31;96724.81;;;16.88
19196;BMP280;9730;48.926;11.376;2023-07-24T00:11:59;96728.19;;;17.18
19196;BMP280;9730;48.926;11.376;2023-07-24T00:14:27;96714.50;;;17.19
19196;BMP280;9730;48.926;11.376;2023-07-24T00:16:54;96719.19;;;17.14
19196;BMP280;9730;48.926;11.376;2023-07-24T00:19:24;96720.09;;;17.04
19196;BMP280;9730;48.926;11.376;2023-07-24T00:21:51;96722.59;;;17.24
19196;BMP280;9730;48.926;11.376;2023-07-24T00:24:19;96711.44;;;16.86
19196;BMP280;9730;48.926;11.376;2023-07-24T00:26:47;96710.69;;;17.04
19196;BMP280;9730;48.926;11.376;2023-07-24T00:29:14;96715.44;;;17.18
19196;BMP280;9730;48.926;11.376;2023-07-24T00:31:42;96720.03;;;17.24
19196;BMP280;9730;48.926;11.376;2023-07-24T00:34:10;96721.38;;;17.19
19196;BMP280;9730;48.926;11.376;2023-07-24T00:36:40;96722.03;;;17.21
19196;BMP280;9730;48.926;11.376;2023-07-24T00:39:08;96715.31;;;17.20
19196;BMP280;9730;48.926;11.376;2023-07-24T00:41:36;96718.06;;;17.28
19196;BMP280;9730;48.926;11.376;2023-07-24T00:44:04;96716.94;;;17.21
19196;BMP280;9730;48.926;11.376;2023-07-24T00:46:32;96720.94;;;17.14
19196;BMP280;9730;48.926;11.376;2023-07-24T00:49:02;96722.59;;;17.24
19196;BMP280;9730;48.926;11.376;2023-07-24T00:51:32;96727.81;;;16.93
19196;BMP280;9730;48.926;11.376;2023-07-24T00:54:02;96719.63;;;17.19
19196;BMP280;9730;48.926;11.376;2023-07-24T00:56:31;96716.75;;;17.33
19196;BMP280;9730;48.926;11.376;2023-07-24T00:58:59;96719.19;;;17.44
19196;BMP280;9730;48.926;11.376;2023-07-24T01:01:28;96742.53;;;17.40
19196;BMP280;9730;48.926;11.376;2023-07-24T01:03:56;96791.47;;;17.13
19196;BMP280;9730;48.926;11.376;2023-07-24T01:06:24;96814.47;;;17.02
19196;BMP280;9730;48.926;11.376;2023-07-24T01:08:52;96809.38;;;17.23
19196;BMP280;9730;48.926;11.376;2023-07-24T01:11:25;96779.22;;;17.07
19196;BMP280;9730;48.926;11.376;2023-07-24T01:13:58;96758.88;;;17.17
19196;BMP280;9730;48.926;11.376;2023-07-24T01:16:33;96742.75;;;17.37
19196;BMP280;9730;48.926;11.376;2023-07-24T01:19:04;96718.41;;;17.44
19196;BMP280;9730;48.926;11.376;2023-07-24T01:21:44;96701.75;;;17.49
19196;BMP280;9730;48.926;11.376;2023-07-24T01:24:24;96715.94;;;17.33
19196;BMP280;9730;48.926;11.376;2023-07-24T01:26:58;96714.28;;;17.22
19196;BMP280;9730;48.926;11.376;2023-07-24T01:29:26;96705.44;;;17.26
19196;BMP280;9730;48.926;11.376;2023-07-24T01:31:54;96697.00;;;17.35
19196;BMP280;9730;48.926;11.376;2023-07-24T01:34:22;96707.28;;;17.15
19196;BMP280;9730;48.926;11.376;2023-07-24T01:36:50;96702.97;;;17.15
19196;BMP280;9730;48.926;11.376;2023-07-24T01:39:19;96725.78;;;17.17
19196;BMP280;9730;48.926;11.376;2023-07-24T01:41:47;96734.78;;;17.21
19196;BMP280;9730;48.926;11.376;2023-07-24T01:44:17;96747.66;;;17.19
19196;BMP280;9730;48.926;11.376;2023-07-24T01:46:45;96744.66;;;17.35
19196;BMP280;9730;48.926;11.376;2023-07-24T01:49:13;96732.97;;;17.32
19196;BMP280;9730;48.926;11.376;2023-07-24T01:51:43;96709.41;;;17.40
19196;BMP280;9730;48.926;11.376;2023-07-24T01:54:10;96689.38;;;17.35
19196;BMP280;9730;48.926;11.376;2023-07-24T01:56:39;96672.09;;;17.39
19196;BMP280;9730;48.926;11.376;2023-07-24T01:59:07;96655.63;;;17.52
19196;BMP280;9730;48.926;11.376;2023-07-24T02:01:36;96643.25;;;17.57
19196;BMP280;9730;48.926;11.376;2023-07-24T02:04:04;96657.19;;;17.34
19196;BMP280;9730;48.926;11.376;2023-07-24T02:06:32;96674.38;;;17.02
19196;BMP280;9730;48.926;11.376;2023-07-24T02:08:59;96669.97;;;17.14
19196;BMP280;9730;48.926;11.376;2023-07-24T02:11:27;96668.28;;;17.24
19196;BMP280;9730;48.926;11.376;2023-07-24T02:13:55;96687.06;;;16.93
19196;BMP280;9730;48.926;11.376;2023-07-24T02:16:22;96687.06;;;16.93
19196;BMP280;9730;48.926;11.376;2023-07-24T02:18:51;96683.94;;;16.90
19196;BMP280;9730;48.926;11.376;2023-07-24T02:21:19;96676.38;;;16.69
19196;BMP280;9730;48.926;11.376;2023-07-24T02:23:47;96669.84;;;16.86
19196;BMP280;9730;48.926;11.376;2023-07-24T02:26:15;96647.53;;;16.99
19196;BMP280;9730;48.926;11.376;2023-07-24T02:28:42;96627.56;;;17.03
19196;BMP280;9730;48.926;11.376;2023-07-24T02:31:10;96620.25;;;17.19
19196;BMP280;9730;48.926;11.376;2023-07-24T02:33:38;96609.06;;;17.31
19196;BMP280;9730;48.926;11.376;2023-07-24T02:36:07;96605.69;;;17.31
19196;BMP280;9730;48.926;11.376;2023-07-24T02:38:34;96632.63;;;17.24
19196;BMP280;9730;48.926;11.376;2023-07-24T02:41:06;96637.22;;;17.00
19196;BMP280;9730;48.926;11.376;2023-07-24T02:43:35;96649.75;;;16.83
19196;BMP280;9730;48.926;11.376;2023-07-24T02:46:02;96654.69;;;16.75
19196;BMP280;9730;48.926;11.376;2023-07-24T02:48:30;96649.69;;;16.73
19196;BMP280;9730;48.926;11.376;2023-07-24T02:50:58;96637.09;;;16.72
19196;BMP280;9730;48.926;11.376;2023-07-24T02:53:27;96633.84;;;16.60
19196;BMP280;9730;48.926;11.376;2023-07-24T02:55:54;96632.34;;;16.28
19196;BMP280;9730;48.926;11.376;2023-07-24T02:58:22;96631.19;;;16.01
19196;BMP280;9730;48.926;11.376;2023-07-24T03:00:50;96617.22;;;16.27
19196;BMP280;9730;48.926;11.376;2023-07-24T03:03:18;96638.81;;;16.32
19196;BMP280;9730;48.926;11.376;2023-07-24T03:05:46;96648.41;;;16.29
19196;BMP280;9730;48.926;11.376;2023-07-24T03:08:14;96666.16;;;16.40
19196;BMP280;9730;48.926;11.376;2023-07-24T03:10:43;96667.25;;;16.47
19196;BMP280;9730;48.926;11.376;2023-07-24T03:13:10;96675.16;;;16.12
19196;BMP280;9730;48.926;11.376;2023-07-24T03:15:38;96672.38;;;16.15
19196;BMP280;9730;48.926;11.376;2023-07-24T03:18:06;96689.69;;;16.32
19196;BMP280;9730;48.926;11.376;2023-07-24T03:20:34;96706.81;;;16.50
19196;BMP280;9730;48.926;11.376;2023-07-24T03:23:02;96711.97;;;16.60
19196;BMP280;9730;48.926;11.376;2023-07-24T03:25:29;96711.03;;;16.41
19196;BMP280;9730;48.926;11.376;2023-07-24T03:27:59;96704.81;;;16.54
19196;BMP280;9730;48.926;11.376;2023-07-24T03:30:27;96723.72;;;16.81
19196;BMP280;9730;48.926;11.376;2023-07-24T03:32:55;96734.94;;;16.69
19196;BMP280;9730;48.926;11.376;2023-07-24T03:35:22;96760.47;;;16.88
19196;BMP280;9730;48.926;11.376;2023-07-24T03:37:50;96698.78;;;17.44
19196;BMP280;9730;48.926;11.376;2023-07-24T03:40:18;96621.53;;;17.62
19196;BMP280;9730;48.926;11.376;2023-07-24T03:42:46;96505.97;;;17.81
19196;BMP280;9730;48.926;11.376;2023-07-24T03:45:15;96486.25;;;17.73
19196;BMP280;9730;48.926;11.376;2023-07-24T03:47:43;96534.72;;;17.64
19196;BMP280;9730;48.926;11.376;2023-07-24T03:50:10;96575.09;;;17.68
19196;BMP280;9730;48.926;11.376;2023-07-24T03:52:38;96542.63;;;17.70
19196;BMP280;9730;48.926;11.376;2023-07-24T03:55:07;96546.66;;;17.54
19196;BMP280;9730;48.926;11.376;2023-07-24T03:57:35;96570.09;;;17.20
19196;BMP280;9730;48.926;11.376;2023-07-24T04:00:04;96572.91;;;17.17
19196;BMP280;9730;48.926;11.376;2023-07-24T04:02:39;96592.31;;;16.99
19196;BMP280;9730;48.926;11.376;2023-07-24T04:05:07;96571.28;;;17.16
19196;BMP280;9730;48.926;11.376;2023-07-24T04:07:35;96572.91;;;17.17
19196;BMP280;9730;48.926;11.376;2023-07-24T04:10:04;96582.69;;;17.21
19196;BMP280;9730;48.926;11.376;2023-07-24T04:12:32;96578.53;;;17.11
19196;BMP280;9730;48.926;11.376;2023-07-24T04:14:59;96572.25;;;17.24
19196;BMP280;9730;48.926;11.376;2023-07-24T04:17:27;96584.78;;;16.88
19196;BMP280;9730;48.926;11.376;2023-07-24T04:19:56;96573.94;;;16.96
19196;BMP280;9730;48.926;11.376;2023-07-24T04:22:25;96569.38;;;16.99
19196;BMP280;9730;48.926;11.376;2023-07-24T04:24:52;96576.22;;;16.99
19196;BMP280;9730;48.926;11.376;2023-07-24T04:27:20;96566.47;;;17.13
19196;BMP280;9730;48.926;11.376;2023-07-24T04:29:48;96573.72;;;17.08
19196;BMP280;9730;48.926;11.376;2023-07-24T04:32:16;96589.50;;;17.11
19196;BMP280;9730;48.926;11.376;2023-07-24T04:34:43;96592.09;;;17.21
19196;BMP280;9730;48.926;11.376;2023-07-24T04:37:12;96591.06;;;17.33
19196;BMP280;9730;48.926;11.376;2023-07-24T04:39:40;96598.16;;;17.29
19196;BMP280;9730;48.926;11.376;2023-07-24T04:42:08;96614.13;;;16.92
19196;BMP280;9730;48.926;11.376;2023-07-24T04:44:36;96626.66;;;16.65
19196;BMP280;9730;48.926;11.376;2023-07-24T04:47:03;96618.81;;;16.57
19196;BMP280;9730;48.926;11.376;2023-07-24T04:49:31;96601.00;;;16.57
19196;BMP280;9730;48.926;11.376;2023-07-24T04:51:59;96579.41;;;16.91
19196;BMP280;9730;48.926;11.376;2023-07-24T04:54:28;96567.34;;;16.84
19196;BMP280;9730;48.926;11.376;2023-07-24T04:56:56;96567.84;;;17.26
19196;BMP280;9730;48.926;11.376;2023-07-24T04:59:24;96563.03;;;17.23
19196;BMP280;9730;48.926;11.376;2023-07-24T05:01:51;96556.63;;;17.38
19196;BMP280;9730;48.926;11.376;2023-07-24T05:04:19;96564.25;;;17.38
19196;BMP280;9730;48.926;11.376;2023-07-24T05:06:47;96551.50;;;17.48
19196;BMP280;9730;48.926;11.376;2023-07-24T05:09:15;96552.16;;;17.40
19196;BMP280;9730;48.926;11.376;2023-07-24T05:11:44;96553.63;;;17.24
19196;BMP280;9730;48.926;11.376;2023-07-24T05:14:11;96546.53;;;17.37
19196;BMP280;9730;48.926;11.376;2023-07-24T05:16:39;96543.59;;;17.32
19196;BMP280;9730;48.926;11.376;2023-07-24T05:19:07;96530.03;;;17.50
19196;BMP280;9730;48.926;11.376;2023-07-24T05:21:35;96499.00;;;17.83
19196;BMP280;9730;48.926;11.376;2023-07-24T05:24:02;96513.66;;;17.71
19196;BMP280;9730;48.926;11.376;2023-07-24T05:26:30;96523.72;;;17.63
19196;BMP280;9730;48.926;11.376;2023-07-24T05:28:59;96523.06;;;17.43
19196;BMP280;9730;48.926;11.376;2023-07-24T05:31:27;96511.75;;;17.83
19196;BMP280;9730;48.926;11.376;2023-07-24T05:33:55;96507.25;;;18.13
19196;BMP280;9730;48.926;11.376;2023-07-24T05:36:22;96521.94;;;17.92
19196;BMP280;9730;48.926;11.376;2023-07-24T05:38:51;96512.56;;;18.29
19196;BMP280;9730;48.926;11.376;2023-07-24T05:41:19;96499.16;;;18.54
19196;BMP280;9730;48.926;11.376;2023-07-24T05:43:46;96498.03;;;18.83
19196;BMP280;9730;48.926;11.376;2023-07-24T05:46:16;96496.81;;;19.14
19196;BMP280;9730;48.926;11.376;2023-07-24T05:48:43;96486.94;;;19.53
19196;BMP280;9730;48.926;11.376;2023-07-24T05:51:11;96487.97;;;19.43
19196;BMP280;9730;48.926;11.376;2023-07-24T05:53:39;96489.13;;;19.73
19196;BMP280;9730;48.926;11.376;2023-07-24T05:56:06;96481.53;;;19.81
19196;BMP280;9730;48.926;11.376;2023-07-24T05:58:34;96492.56;;;19.82
19196;BMP280;9730;48.926;11.376;2023-07-24T06:01:02;96479.38;;;19.94
19196;BMP280;9730;48.926;11.376;2023-07-24T06:03:31;96472.53;;;19.95
19196;BMP280;9730;48.926;11.376;2023-07-24T06:05:59;96471.88;;;20.26
19196;BMP280;9730;48.926;11.376;2023-07-24T06:08:26;96449.16;;;20.64
19196;BMP280;9730;48.926;11.376;2023-07-24T06:10:54;96436.97;;;21.55
19196;BMP280;9730;48.926;11.376;2023-07-24T06:13:22;96411.25;;;22.93
19196;BMP280;9730;48.926;11.376;2023-07-24T06:15:51;96368.22;;;23.97
19196;BMP280;9730;48.926;11.376;2023-07-24T06:18:19;96357.50;;;24.99
19196;BMP280;9730;48.926;11.376;2023-07-24T06:20:52;96316.03;;;25.82
19196;BMP280;9730;48.926;11.376;2023-07-24T06:23:19;96346.84;;;24.67
19196;BMP280;9730;48.926;11.376;2023-07-24T06:25:47;96378.94;;;24.01
19196;BMP280;9730;48.926;11.376;2023-07-24T06:28:15;96401.84;;;23.45
19196;BMP280;9730;48.926;11.376;2023-07-24T06:30:43;96387.81;;;23.84
19196;BMP280;9730;48.926;11.376;2023-07-24T06:33:10;96360.38;;;25.11
19196;BMP280;9730;48.926;11.376;2023-07-24T06:35:38;96339.06;;;25.50
19196;BMP280;9730;48.926;11.376;2023-07-24T06:38:07;96336.25;;;25.72
19196;BMP280;9730;48.926;11.376;2023-07-24T06:40:35;96408.78;;;23.81
19196;BMP280;9730;48.926;11.376;2023-07-24T06:43:03;96398.00;;;24.35
19196;BMP280;9730;48.926;11.376;2023-07-24T06:45:31;96351.59;;;25.53
19196;BMP280;9730;48.926;11.376;2023-07-24T06:47:59;96315.53;;;26.06
19196;BMP280;9730;48.926;11.376;2023-07-24T06:50:26;96327.38;;;25.27
19196;BMP280;9730;48.926;11.376;2023-07-24T06:52:54;96331.47;;;26.10
19196;BMP280;9730;48.926;11.376;2023-07-24T06:55:23;96325.75;;;25.80
19196;BMP280;9730;48.926;11.376;2023-07-24T06:57:51;96367.28;;;25.58
19196;BMP280;9730;48.926;11.376;2023-07-24T07:00:19;96440.09;;;23.84
19196;BMP280;9730;48.926;11.376;2023-07-24T07:02:46;96480.91;;;22.22
19196;BMP280;9730;48.926;11.376;2023-07-24T07:05:14;96503.31;;;21.82
19196;BMP280;9730;48.926;11.376;2023-07-24T07:07:42;96503.88;;;22.31
19196;BMP280;9730;48.926;11.376;2023-07-24T07:10:09;96484.22;;;22.54
19196;BMP280;9730;48.926;11.376;2023-07-24T07:12:38;96494.34;;;22.47
19196;BMP280;9730;48.926;11.376;2023-07-24T07:15:07;96524.91;;;21.24
19196;BMP280;9730;48.926;11.376;2023-07-24T07:17:35;96528.28;;;21.32
19196;BMP280;9730;48.926;11.376;2023-07-24T07:20:04;96535.69;;;21.67
19196;BMP280;9730;48.926;11.376;2023-07-24T07:22:31;96557.06;;;21.75
19196;BMP280;9730;48.926;11.376;2023-07-24T07:24:59;96583.34;;;21.04
19196;BMP280;9730;48.926;11.376;2023-07-24T07:27:27;96589.00;;;20.75
19196;BMP280;9730;48.926;11.376;2023-07-24T07:29:56;96598.94;;;20.02
19196;BMP280;9730;48.926;11.376;2023-07-24T07:32:24;96596.38;;;20.02
19196;BMP280;9730;48.926;11.376;2023-07-24T07:34:52;96602.19;;;20.37
19196;BMP280;9730;48.926;11.376;2023-07-24T07:37:20;96596.28;;;20.36
19196;BMP280;9730;48.926;11.376;2023-07-24T07:39:48;96589.47;;;20.02
19196;BMP280;9730;48.926;11.376;2023-07-24T07:42:15;96583.34;;;19.78
19196;BMP280;9730;48.926;11.376;2023-07-24T07:44:44;96583.81;;;19.91
19196;BMP280;9730;48.926;11.376;2023-07-24T07:47:13;96578.31;;;19.69
19196;BMP280;9730;48.926;11.376;2023-07-24T07:49:40;96583.56;;;19.84
19196;BMP280;9730;48.926;11.376;2023-07-24T07:52:08;96572.38;;;19.68
19196;BMP280;9730;48.926;11.376;2023-07-24T07:54:36;96581.03;;;19.67
19196;BMP280;9730;48.926;11.376;2023-07-24T07:57:04;96587.31;;;19.55
19196;BMP280;9730;48.926;11.376;2023-07-24T07:59:32;96583.22;;;19.62
19196;BMP280;9730;48.926;11.376;2023-07-24T08:02:01;96590.66;;;19.56
19196;BMP280;9730;48.926;11.376;2023-07-24T08:04:30;96584.75;;;19.73
19196;BMP280;9730;48.926;11.376;2023-07-24T08:06:58;96585.91;;;19.95
19196;BMP280;9730;48.926;11.376;2023-07-24T08:09:26;96581.41;;;19.89
19196;BMP280;9730;48.926;11.376;2023-07-24T08:11:53;96591.09;;;20.03
19196;BMP280;9730;48.926;11.376;2023-07-24T08:14:21;96587.00;;;20.10
19196;BMP280;9730;48.926;11.376;2023-07-24T08:16:49;96597.56;;;20.15
19196;BMP280;9730;48.926;11.376;2023-07-24T08:19:17;96590.38;;;20.36
19196;BMP280;9730;48.926;11.376;2023-07-24T08:21:46;96596.56;;;20.59
19196;BMP280;9730;48.926;11.376;2023-07-24T08:24:14;96585.25;;;20.36
19196;BMP280;9730;48.926;11.376;2023-07-24T08:26:41;96583.63;;;20.35
19196;BMP280;9730;48.926;11.376;2023-07-24T08:29:09;96587.09;;;20.51
19196;BMP280;9730;48.926;11.376;2023-07-24T08:31:37;96568.84;;;20.80
19196;BMP280;9730;48.926;11.376;2023-07-24T08:34:05;96568.19;;;20.52
19196;BMP280;9730;48.926;11.376;2023-07-24T08:36:32;96545.06;;;21.03
19196;BMP280;9730;48.926;11.376;2023-07-24T08:39:02;96539.31;;;21.17
19196;BMP280;9730;48.926;11.376;2023-07-24T08:41:29;96557.47;;;20.82
19196;BMP280;9730;48.926;11.376;2023-07-24T08:44:01;96548.06;;;20.90
19196;BMP280;9730;48.926;11.376;2023-07-24T08:46:29;96540.09;;;21.17
19196;BMP280;9730;48.926;11.376;2023-07-24T08:48:57;96547.22;;;20.82
19196;BMP280;9730;48.926;11.376;2023-07-24T08:51:25;96522.94;;;20.61
19196;BMP280;9730;48.926;11.376;2023-07-24T08:53:53;96501.78;;;20.92
19196;BMP280;9730;48.926;11.376;2023-07-24T08:56:22;96497.47;;;21.08
19196;BMP280;9730;48.926;11.376;2023-07-24T08:58:49;96495.91;;;21.23
19196;BMP280;9730;48.926;11.376;2023-07-24T09:01:17;96505.91;;;21.58
19196;BMP280;9730;48.926;11.376;2023-07-24T09:03:45;96504.72;;;22.00
19196;BMP280;9730;48.926;11.376;2023-07-24T09:06:13;96490.09;;;22.32
19196;BMP280;9730;48.926;11.376;2023-07-24T09:08:42;96493.59;;;22.39
19196;BMP280;9730;48.926;11.376;2023-07-24T09:11:13;96488.78;;;22.36
19196;BMP280;9730;48.926;11.376;2023-07-24T09:13:43;96483.09;;;22.87
19196;BMP280;9730;48.926;11.376;2023-07-24T09:16:21;96467.47;;;23.63
19196;BMP280;9730;48.926;11.376;2023-07-24T09:18:49;96446.63;;;24.23
19196;BMP280;9730;48.926;11.376;2023-07-24T09:21:28;96425.47;;;24.13
19196;BMP280;9730;48.926;11.376;2023-07-24T09:23:56;96418.88;;;24.25
19196;BMP280;9730;48.926;11.376;2023-07-24T09:26:24;96420.31;;;24.28
19196;BMP280;9730;48.926;11.376;2023-07-24T09:28:55;96393.16;;;25.37
19196;BMP280;9730;48.926;11.376;2023-07-24T09:31:34;96334.72;;;27.42
19196;BMP280;9730;48.926;11.376;2023-07-24T09:34:02;96312.19;;;26.78
19196;BMP280;9730;48.926;11.376;2023-07-24T09:36:37;96341.25;;;26.21
19196;BMP280;9730;48.926;11.376;2023-07-24T09:39:05;96272.16;;;29.13
19196;BMP280;9730;48.926;11.376;2023-07-24T09:41:37;96192.81;;;30.87
19196;BMP280;9730;48.926;11.376;2023-07-24T09:44:08;96154.47;;;31.28
19196;BMP280;9730;48.926;11.376;2023-07-24T09:46:35;96121.84;;;32.04
19196;BMP280;9730;48.926;11.376;2023-07-24T09:49:11;96264.34;;;27.77
19196;BMP280;9730;48.926;11.376;2023-07-24T09:51:44;96190.53;;;30.57
19196;BMP280;9730;48.926;11.376;2023-07-24T09:54:17;96153.38;;;31.64
19196;BMP280;9730;48.926;11.376;2023-07-24T09:56:47;96156.06;;;31.29
19196;BMP280;9730;48.926;11.376;2023-07-24T09:59:20;96194.19;;;31.13
19196;BMP280;9730;48.926;11.376;2023-07-24T10:01:48;96106.69;;;33.42
19196;BMP280;9730;48.926;11.376;2023-07-24T10:04:17;96103.38;;;33.68
19196;BMP280;9730;48.926;11.376;2023-07-24T10:06:45;96110.03;;;33.16
19196;BMP280;9730;48.926;11.376;2023-07-24T10:09:14;96141.94;;;32.36
19196;BMP280;9730;48.926;11.376;2023-07-24T10:11:42;96147.28;;;31.97
19196;BMP280;9730;48.926;11.376;2023-07-24T10:14:09;96196.66;;;31.92
19196;BMP280;9730;48.926;11.376;2023-07-24T10:16:39;96277.13;;;28.90
19196;BMP280;9730;48.926;11.376;2023-07-24T10:19:13;96283.25;;;28.71
19196;BMP280;9730;48.926;11.376;2023-07-24T10:21:44;96284.13;;;28.90
19196;BMP280;9730;48.926;11.376;2023-07-24T10:24:12;96293.34;;;28.55
19196;BMP280;9730;48.926;11.376;2023-07-24T10:26:42;96275.56;;;28.21
19196;BMP280;9730;48.926;11.376;2023-07-24T10:29:10;96281.81;;;28.44
19196;BMP280;9730;48.926;11.376;2023-07-24T10:31:40;96252.88;;;28.47
19196;BMP280;9730;48.926;11.376;2023-07-24T10:34:08;96263.16;;;28.91
19196;BMP280;9730;48.926;11.376;2023-07-24T10:36:36;96233.94;;;29.02
19196;BMP280;9730;48.926;11.376;2023-07-24T10:39:13;96295.72;;;27.18
19196;BMP280;9730;48.926;11.376;2023-07-24T10:41:41;96317.03;;;26.94
19196;BMP280;9730;48.926;11.376;2023-07-24T10:44:11;96293.31;;;27.35
19196;BMP280;9730;48.926;11.376;2023-07-24T10:46:41;96305.66;;;27.27
19196;BMP280;9730;48.926;11.376;2023-07-24T10:49:09;96300.25;;;27.41
19196;BMP280;9730;48.926;11.376;2023-07-24T10:51:37;96330.50;;;26.83
19196;BMP280;9730;48.926;11.376;2023-07-24T10:54:05;96312.63;;;27.14
19196;BMP280;9730;48.926;11.376;2023-07-24T10:56:33;96331.84;;;26.47
19196;BMP280;9730;48.926;11.376;2023-07-24T10:59:03;96322.41;;;26.92
19196;BMP280;9730;48.926;11.376;2023-07-24T11:01:31;96341.78;;;26.03
19196;BMP280;9730;48.926;11.376;2023-07-24T11:04:02;96361.88;;;25.74
19196;BMP280;9730;48.926;11.376;2023-07-24T11:06:29;96350.31;;;26.04
19196;BMP280;9730;48.926;11.376;2023-07-24T11:08:58;96362.03;;;26.06
19196;BMP280;9730;48.926;11.376;2023-07-24T11:11:29;96371.59;;;26.06
19196;BMP280;9730;48.926;11.376;2023-07-24T11:13:58;96376.09;;;25.15
19196;BMP280;9730;48.926;11.376;2023-07-24T11:16:26;96396.75;;;24.80
19196;BMP280;9730;48.926;11.376;2023-07-24T11:18:54;96398.56;;;25.42
19196;BMP280;9730;48.926;11.376;2023-07-24T11:21:23;96386.19;;;25.65
19196;BMP280;9730;48.926;11.376;2023-07-24T11:23:52;96377.25;;;25.88
19196;BMP280;9730;48.926;11.376;2023-07-24T11:26:21;96377.78;;;26.18
19196;BMP280;9730;48.926;11.376;2023-07-24T11:28:50;96377.53;;;26.06
19196;BMP280;9730;48.926;11.376;2023-07-24T11:31:18;96386.75;;;26.22
19196;BMP280;9730;48.926;11.376;2023-07-24T11:33:47;96403.72;;;25.97
19196;BMP280;9730;48.926;11.376;2023-07-24T11:36:16;96400.16;;;25.98
19196;BMP280;9730;48.926;11.376;2023-07-24T11:38:46;96418.75;;;25.87
19196;BMP280;9730;48.926;11.376;2023-07-24T11:41:15;96421.66;;;25.77
19196;BMP280;9730;48.926;11.376;2023-07-24T11:43:46;96433.38;;;25.53
19196;BMP280;9730;48.926;11.376;2023-07-24T11:46:25;96445.22;;;25.47
19196;BMP280;9730;48.926;11.376;2023-07-24T11:48:53;96430.03;;;25.31
19196;BMP280;9730;48.926;11.376;2023-07-24T11:51:23;96420.09;;;25.28
19196;BMP280;9730;48.926;11.376;2023-07-24T11:54:04;96411.22;;;25.37
19196;BMP280;9730;48.926;11.376;2023-07-24T11:56:32;96407.09;;;25.43
19196;BMP280;9730;48.926;11.376;2023-07-24T11:59:09;96424.75;;;25.18
19196;BMP280;9730;48.926;11.376;2023-07-24T12:01:36;96415.91;;;25.07
19196;BMP280;9730;48.926;11.376;2023-07-24T12:04:04;96435.00;;;24.98
19196;BMP280;9730;48.926;11.376;2023-07-24T12:06:32;96467.22;;;24.23
19196;BMP280;9730;48.926;11.376;2023-07-24T12:09:03;96485.53;;;23.77
19196;BMP280;9730;48.926;11.376;2023-07-24T12:11:32;96497.69;;;24.06
19196;BMP280;9730;48.926;11.376;2023-07-24T12:14:00;96495.94;;;23.84
19196;BMP280;9730;48.926;11.376;2023-07-24T12:16:28;96518.78;;;23.64
19196;BMP280;9730;48.926;11.376;2023-07-24T12:18:55;96537.72;;;23.49
19196;BMP280;9730;48.926;11.376;2023-07-24T12:21:23;96561.25;;;23.38
19196;BMP280;9730;48.926;11.376;2023-07-24T12:23:51;96552.59;;;23.09
19196;BMP280;9730;48.926;11.376;2023-07-24T12:26:20;96578.72;;;22.74
19196;BMP280;9730;48.926;11.376;2023-07-24T12:28:48;96577.19;;;22.49
19196;BMP280;9730;48.926;11.376;2023-07-24T12:31:16;96586.38;;;22.20
19196;BMP280;9730;48.926;11.376;2023-07-24T12:33:44;96586.06;;;21.60
19196;BMP280;9730;48.926;11.376;2023-07-24T12:36:11;96591.06;;;21.12
19196;BMP280;9730;48.926;11.376;2023-07-24T12:38:39;96593.41;;;20.98
19196;BMP280;9730;48.926;11.376;2023-07-24T12:41:07;96586.28;;;20.26
19196;BMP280;9730;48.926;11.376;2023-07-24T12:43:36;96576.69;;;20.27
19196;BMP280;9730;48.926;11.376;2023-07-24T12:46:03;96566.97;;;19.71
19196;BMP280;9730;48.926;11.376;2023-07-24T12:48:31;96561.22;;;19.52
19196;BMP280;9730;48.926;11.376;2023-07-24T12:50:59;96548.34;;;19.61
19196;BMP280;9730;48.926;11.376;2023-07-24T12:53:27;96519.00;;;19.30
19196;BMP280;9730;48.926;11.376;2023-07-24T12:55:55;96492.63;;;19.13
19196;BMP280;9730;48.926;11.376;2023-07-24T12:58:23;96450.41;;;18.91
19196;BMP280;9730;48.926;11.376;2023-07-24T13:00:52;96411.50;;;18.80
19196;BMP280;9730;48.926;11.376;2023-07-24T13:03:19;96413.78;;;19.18
19196;BMP280;9730;48.926;11.376;2023-07-24T13:05:48;96406.69;;;19.79
19196;BMP280;9730;48.926;11.376;2023-07-24T13:08:15;96393.66;;;19.65
19196;BMP280;9730;48.926;11.376;2023-07-24T13:10:48;96380.50;;;19.85
19196;BMP280;9730;48.926;11.376;2023-07-24T13:13:16;96359.00;;;20.04
19196;BMP280;9730;48.926;11.376;2023-07-24T13:15:43;96370.78;;;19.64
19196;BMP280;9730;48.926;11.376;2023-07-24T13:18:12;96349.88;;;19.93
19196;BMP280;9730;48.926;11.376;2023-07-24T13:20:51;96349.69;;;20.36
19196;BMP280;9730;48.926;11.376;2023-07-24T13:23:19;96334.88;;;21.03
19196;BMP280;9730;48.926;11.376;2023-07-24T13:25:47;96335.34;;;21.14
19196;BMP280;9730;48.926;11.376;2023-07-24T13:28:17;96329.25;;;21.31
19196;BMP280;9730;48.926;11.376;2023-07-24T13:30:45;96317.75;;;22.19
19196;BMP280;9730;48.926;11.376;2023-07-24T13:33:15;96319.13;;;22.60
19196;BMP280;9730;48.926;11.376;2023-07-24T13:35:43;96317.59;;;22.51
19196;BMP280;9730;48.926;11.376;2023-07-24T13:38:10;96319.03;;;22.90
19196;BMP280;9730;48.926;11.376;2023-07-24T13:40:38;96300.16;;;23.20
19196;BMP280;9730;48.926;11.376;2023-07-24T13:43:06;96290.63;;;23.43
19196;BMP280;9730;48.926;11.376;2023-07-24T13:45:34;96304.09;;;23.59
19196;BMP280;9730;48.926;11.376;2023-07-24T13:48:02;96312.81;;;23.87
19196;BMP280;9730;48.926;11.376;2023-07-24T13:50:31;96300.09;;;24.00
19196;BMP280;9730;48.926;11.376;2023-07-24T13:52:59;96298.00;;;22.72
19196;BMP280;9730;48.926;11.376;2023-07-24T13:55:26;96315.81;;;23.33
19196;BMP280;9730;48.926;11.376;2023-07-24T13:57:54;96314.28;;;23.96
19196;BMP280;9730;48.926;11.376;2023-07-24T14:00:22;96299.81;;;24.09
19196;BMP280;9730;48.926;11.376;2023-07-24T14:02:49;96306.41;;;24.32
19196;BMP280;9730;48.926;11.376;2023-07-24T14:05:17;96319.22;;;23.11
19196;BMP280;9730;48.926;11.376;2023-07-24T14:07:46;96316.69;;;23.40
19196;BMP280;9730;48.926;11.376;2023-07-24T14:10:14;96331.44;;;23.60
19196;BMP280;9730;48.926;11.376;2023-07-24T14:12:42;96339.97;;;22.87
19196;BMP280;9730;48.926;11.376;2023-07-24T14:15:10;96329.72;;;23.38
19196;BMP280;9730;48.926;11.376;2023-07-24T14:17:37;96339.63;;;22.45